KATL/ATL METAR and TAF weather

Enter ICAO airport designator
Station Type Date Time Source
KATL METAR 2020/10/20 16:52 UTC NOAA

KATL 201652Z 08007KT 10SM FEW034 FEW180 SCT250 24/16 A3024 RMK AO2 SLP233 T02390156


Station Type Date Time Source
KATL Decoded METAR 2020/10/20 16:52 UTC NOAA

HARTSFIELD-JACKSON ATLANTA, GA, United States (KATL) 33-39N 84-26W
Oct 20, 2020 - 12:52 PM EDT / 2020.10.20 1652 UTC
Wind: from the E (080 degrees) at 8 MPH (7 KT):0
Visibility: 10 mile(s):0
Sky conditions: partly cloudy
Temperature: 75.0 F (23.9 C)
Dew Point: 60.1 F (15.6 C)
Relative Humidity: 59%
Pressure (altimeter): 30.24 in. Hg (1024 hPa)
ob: KATL 201652Z 08007KT 10SM FEW034 FEW180 SCT250 24/16 A3024 RMK AO2 SLP233 T02390156
cycle: 17

Station Type Date Time Source
KATL TAF 2020/10/20 18:30 UTC NOAA

TAF KATL 201727Z 2018/2124 08007KT P6SM FEW035 SCT250
FM210000 09005KT P6SM FEW250
FM210900 07005KT P6SM BKN025
FM211100 06005KT P6SM BKN012
FM211400 07007KT P6SM BKN025
FM211600 07008KT P6SM SCT035

Example: see airport list